createdAt,value
2022-11-28T00:01:39.953Z,0.93
2022-11-28T00:04:08.493Z,0.90
2022-11-28T00:06:45.593Z,1.20
2022-11-28T00:09:14.131Z,1.40
2022-11-28T00:11:44.773Z,1.20
2022-11-28T00:14:12.614Z,1.02
2022-11-28T00:16:39.898Z,1.08
2022-11-28T00:19:07.919Z,0.90
2022-11-28T00:21:35.811Z,1.10
2022-11-28T00:24:04.254Z,1.10
2022-11-28T00:26:41.459Z,1.02
2022-11-28T00:29:09.754Z,1.20
2022-11-28T00:31:42.767Z,0.90
2022-11-28T00:34:15.269Z,1.15
2022-11-28T00:36:45.782Z,1.00
2022-11-28T00:39:13.917Z,1.08
2022-11-28T00:41:41.545Z,0.90
2022-11-28T00:44:09.033Z,1.08
2022-11-28T00:46:36.870Z,1.30
2022-11-28T00:49:04.118Z,1.25
2022-11-28T00:51:33.511Z,1.10
2022-11-28T00:54:03.932Z,1.52
2022-11-28T00:56:36.117Z,1.20
2022-11-28T00:59:04.551Z,0.80
2022-11-28T01:01:38.897Z,0.93
2022-11-28T01:04:09.776Z,1.20
2022-11-28T01:06:43.240Z,1.02
2022-11-28T01:09:21.016Z,1.00
2022-11-28T01:11:51.834Z,1.25
2022-11-28T01:14:21.991Z,0.95
2022-11-28T01:16:49.467Z,1.00
2022-11-28T01:19:16.860Z,0.70
2022-11-28T01:21:44.313Z,1.10
2022-11-28T01:24:11.889Z,0.90
2022-11-28T01:26:40.576Z,0.93
2022-11-28T01:29:08.621Z,0.80
2022-11-28T01:31:36.032Z,0.90
2022-11-28T01:34:03.358Z,0.85
2022-11-28T01:36:31.724Z,1.00
2022-11-28T01:38:58.672Z,1.25
2022-11-28T01:41:28.317Z,1.10
2022-11-28T01:44:15.490Z,1.23
2022-11-28T01:46:42.673Z,1.08
2022-11-28T01:49:36.012Z,0.82
2022-11-28T01:52:13.359Z,1.02
2022-11-28T01:54:44.219Z,0.90
2022-11-28T01:57:21.332Z,0.90
2022-11-28T02:00:05.649Z,1.20
2022-11-28T02:02:45.984Z,0.70
2022-11-28T02:05:14.371Z,0.90
2022-11-28T02:07:44.115Z,0.98
2022-11-28T02:10:17.171Z,1.20
2022-11-28T02:13:39.756Z,1.20
2022-11-28T02:16:42.039Z,0.98
2022-11-28T02:19:57.324Z,1.20
2022-11-28T02:23:07.972Z,0.90
2022-11-28T02:26:05.175Z,1.00
2022-11-28T02:29:09.993Z,1.10
2022-11-28T02:32:10.614Z,0.93
2022-11-28T02:34:54.207Z,0.85
2022-11-28T02:37:27.238Z,0.82
2022-11-28T02:40:15.003Z,0.90
2022-11-28T02:43:05.456Z,1.13
2022-11-28T02:45:56.353Z,1.00
2022-11-28T02:48:44.477Z,0.98
2022-11-28T02:51:37.829Z,0.98
2022-11-28T02:54:09.573Z,1.20
2022-11-28T02:56:36.852Z,0.82
2022-11-28T02:59:04.734Z,1.15
2022-11-28T03:01:38.671Z,0.70
2022-11-28T03:04:44.853Z,1.00
2022-11-28T03:07:30.145Z,0.80
2022-11-28T03:10:14.863Z,1.30
2022-11-28T03:12:51.991Z,1.10
2022-11-28T03:15:32.191Z,1.00
2022-11-28T03:18:24.775Z,0.98
2022-11-28T03:21:04.974Z,1.00
2022-11-28T03:23:57.736Z,1.00
2022-11-28T03:26:41.459Z,1.00
2022-11-28T03:29:31.251Z,1.02
2022-11-28T03:32:07.002Z,0.80
2022-11-28T03:34:40.857Z,1.10
2022-11-28T03:37:26.750Z,1.10
2022-11-28T03:40:02.088Z,1.20
2022-11-28T03:42:38.337Z,0.82
2022-11-28T03:45:18.864Z,0.90
2022-11-28T03:47:57.100Z,0.77
2022-11-28T03:50:36.271Z,1.13
2022-11-28T03:53:10.447Z,0.80
2022-11-28T03:55:55.469Z,1.10
2022-11-28T03:58:56.564Z,0.90
2022-11-28T04:01:39.951Z,0.82
2022-11-28T04:04:39.068Z,0.80
2022-11-28T04:07:48.846Z,1.05
2022-11-28T04:10:37.105Z,0.70
2022-11-28T04:13:15.657Z,1.13
2022-11-28T04:15:56.513Z,0.80
2022-11-28T04:18:48.806Z,0.80
2022-11-28T04:21:27.046Z,1.05
2022-11-28T04:24:28.960Z,1.17
2022-11-28T04:27:05.792Z,1.00
2022-11-28T04:29:40.092Z,0.90
2022-11-28T04:32:11.872Z,0.90
2022-11-28T04:34:44.901Z,0.90
2022-11-28T04:37:15.546Z,0.90
2022-11-28T04:39:48.217Z,0.90
2022-11-28T04:42:24.080Z,0.90
2022-11-28T04:44:58.702Z,0.80
2022-11-28T04:47:26.725Z,1.08
2022-11-28T04:49:55.133Z,0.90
2022-11-28T04:52:40.920Z,1.05
2022-11-28T04:56:03.811Z,1.00
2022-11-28T04:58:40.473Z,1.10
2022-11-28T05:01:14.457Z,1.08
2022-11-28T05:03:42.967Z,0.82
2022-11-28T05:06:10.893Z,0.80
2022-11-28T05:08:41.539Z,0.90
2022-11-28T05:11:08.627Z,1.30
2022-11-28T05:13:35.701Z,0.90
2022-11-28T05:16:03.574Z,1.00
2022-11-28T05:18:30.556Z,1.10
2022-11-28T05:20:59.394Z,1.08
2022-11-28T05:23:26.692Z,1.20
2022-11-28T05:25:54.764Z,0.82
2022-11-28T05:28:21.732Z,1.10
2022-11-28T05:30:58.305Z,0.90
2022-11-28T05:33:25.387Z,0.70
2022-11-28T05:35:52.309Z,1.05
2022-11-28T05:38:19.648Z,0.98
2022-11-28T05:40:46.721Z,1.10
2022-11-28T05:43:13.800Z,1.00
2022-11-28T05:45:45.537Z,1.00
2022-11-28T05:48:12.636Z,0.90
2022-11-28T05:50:41.894Z,1.20
2022-11-28T05:53:09.738Z,1.00
2022-11-28T05:55:41.318Z,1.23
2022-11-28T05:58:11.442Z,1.05
2022-11-28T06:00:38.973Z,1.17
2022-11-28T06:03:06.253Z,1.10
2022-11-28T06:05:43.267Z,0.90
2022-11-28T06:08:12.702Z,0.95
2022-11-28T06:10:40.315Z,1.05
2022-11-28T06:13:07.772Z,0.90
2022-11-28T06:15:38.238Z,0.93
2022-11-28T06:18:06.218Z,0.80
2022-11-28T06:20:36.923Z,1.05
2022-11-28T06:23:03.904Z,0.80
2022-11-28T06:25:31.054Z,1.08
2022-11-28T06:27:57.977Z,1.13
2022-11-28T06:30:25.309Z,1.38
2022-11-28T06:32:52.435Z,1.08
2022-11-28T06:35:19.479Z,1.08
2022-11-28T06:37:46.552Z,1.15
2022-11-28T06:40:13.993Z,1.00
2022-11-28T06:42:41.009Z,0.90
2022-11-28T06:45:09.577Z,1.10
2022-11-28T06:47:36.615Z,1.20
2022-11-28T06:50:04.090Z,1.17
2022-11-28T06:52:30.954Z,1.45
2022-11-28T06:54:57.919Z,1.00
2022-11-28T06:57:25.457Z,0.80
2022-11-28T06:59:54.802Z,1.23
2022-11-28T07:02:25.074Z,2.10
2022-11-28T07:04:52.213Z,3.10
2022-11-28T07:07:19.262Z,1.23
2022-11-28T07:09:46.424Z,1.40
2022-11-28T07:12:14.893Z,0.98
2022-11-28T07:14:45.103Z,0.80
2022-11-28T07:17:14.996Z,1.20
2022-11-28T07:19:42.225Z,1.95
2022-11-28T07:22:14.195Z,1.30
2022-11-28T07:24:41.275Z,1.20
2022-11-28T07:27:08.729Z,0.77
2022-11-28T07:29:36.901Z,1.35
2022-11-28T07:32:06.376Z,0.88
2022-11-28T07:34:34.230Z,1.10
2022-11-28T07:37:01.493Z,3.75
2022-11-28T07:39:30.343Z,11.35
2022-11-28T07:41:57.525Z,2.30
2022-11-28T07:44:24.618Z,3.15
2022-11-28T07:46:54.301Z,1.90
2022-11-28T07:49:21.327Z,2.25
2022-11-28T07:51:48.768Z,5.43
2022-11-28T07:54:15.974Z,1.48
2022-11-28T07:59:29.976Z,2.25
2022-11-28T08:01:57.204Z,2.65
2022-11-28T08:04:24.318Z,2.45
2022-11-28T08:06:51.368Z,1.75
2022-11-28T08:09:19.595Z,2.03
2022-11-28T08:11:46.638Z,3.38
2022-11-28T08:14:14.407Z,2.22
2022-11-28T08:16:45.037Z,1.42
2022-11-28T08:19:12.313Z,4.60
2022-11-28T08:21:39.512Z,4.07
2022-11-28T08:24:08.204Z,4.40
2022-11-28T08:26:36.088Z,4.55
2022-11-28T08:29:04.471Z,2.42
2022-11-28T08:31:38.632Z,3.83
2022-11-28T08:34:09.516Z,6.75
2022-11-28T08:36:37.826Z,3.15
2022-11-28T08:41:59.781Z,3.80
2022-11-28T08:44:30.328Z,4.28
2022-11-28T08:46:57.531Z,2.08
2022-11-28T08:49:24.642Z,2.10
2022-11-28T08:51:52.051Z,2.92
2022-11-28T08:54:19.270Z,4.00
2022-11-28T08:56:48.448Z,3.63
2022-11-28T08:59:16.000Z,5.25
2022-11-28T09:01:46.066Z,2.88
2022-11-28T09:04:13.168Z,3.58
2022-11-28T09:06:41.622Z,3.65
2022-11-28T09:09:09.164Z,1.33
2022-11-28T09:11:39.420Z,1.40
2022-11-28T09:14:06.998Z,2.75
2022-11-28T09:16:35.039Z,2.17
2022-11-28T09:19:02.355Z,2.25
2022-11-28T09:21:29.341Z,2.95
2022-11-28T09:23:57.254Z,2.70
2022-11-28T09:26:25.731Z,2.72
2022-11-28T09:28:53.711Z,4.28
2022-11-28T09:31:21.172Z,2.63
2022-11-28T09:33:49.521Z,4.00
2022-11-28T09:36:22.899Z,2.25
2022-11-28T09:38:52.650Z,3.70
2022-11-28T09:41:28.683Z,3.00
2022-11-28T09:44:03.404Z,2.47
2022-11-28T09:46:35.999Z,3.83
2022-11-28T09:49:19.990Z,2.15
2022-11-28T09:51:58.481Z,2.83
2022-11-28T09:54:49.180Z,4.43
2022-11-28T09:57:34.598Z,3.58
2022-11-28T10:00:06.647Z,3.40
2022-11-28T10:03:01.822Z,3.50
2022-11-28T10:05:43.317Z,2.33
2022-11-28T10:08:27.442Z,6.90
2022-11-28T10:11:25.338Z,5.78
2022-11-28T10:14:09.885Z,6.60
2022-11-28T10:17:07.593Z,3.53
2022-11-28T10:19:54.297Z,4.90
2022-11-28T10:22:42.187Z,6.70
2022-11-28T10:25:43.181Z,4.40
2022-11-28T10:28:33.333Z,5.30
2022-11-28T10:31:29.817Z,6.97
2022-11-28T10:34:15.661Z,5.70
2022-11-28T10:37:18.652Z,10.95
2022-11-28T10:39:56.717Z,6.72
2022-11-28T10:42:55.996Z,9.50
2022-11-28T10:45:45.789Z,6.55
2022-11-28T10:48:40.709Z,5.43
2022-11-28T10:52:07.397Z,5.65
2022-11-28T10:55:06.853Z,4.30
2022-11-28T10:58:27.045Z,6.43
2022-11-28T11:01:00.432Z,7.43
2022-11-28T11:03:36.081Z,7.05
2022-11-28T11:06:04.229Z,4.45
2022-11-28T11:08:40.169Z,7.85
2022-11-28T11:11:35.103Z,8.68
2022-11-28T11:14:10.873Z,7.63
2022-11-28T11:16:55.896Z,6.60
2022-11-28T11:19:31.018Z,6.28
2022-11-28T11:22:02.600Z,7.63
2022-11-28T11:24:30.832Z,7.78
2022-11-28T11:27:21.615Z,8.80
2022-11-28T11:29:51.593Z,4.95
2022-11-28T11:32:29.630Z,4.05
2022-11-28T11:35:00.493Z,6.80
2022-11-28T11:37:39.093Z,5.57
2022-11-28T11:40:33.015Z,4.32
2022-11-28T11:43:01.683Z,7.88
2022-11-28T11:45:37.893Z,3.65
2022-11-28T11:48:05.439Z,4.57
2022-11-28T11:50:33.187Z,5.22
2022-11-28T11:53:05.988Z,10.02
2022-11-28T11:55:56.177Z,9.50
2022-11-28T11:58:41.374Z,5.95
2022-11-28T12:01:12.057Z,6.88
2022-11-28T12:04:23.712Z,4.70
2022-11-28T12:06:56.765Z,5.15
2022-11-28T12:09:46.960Z,3.45
2022-11-28T12:12:26.961Z,7.72
2022-11-28T12:14:54.242Z,5.13
2022-11-28T12:20:55.637Z,4.97
2022-11-28T12:23:39.372Z,2.75
2022-11-28T12:27:01.076Z,2.50
2022-11-28T12:30:00.994Z,2.75
2022-11-28T12:32:42.958Z,4.72
2022-11-28T12:35:41.386Z,4.22
2022-11-28T12:38:31.474Z,3.42
2022-11-28T12:41:27.636Z,3.63
2022-11-28T12:44:29.709Z,3.80
2022-11-28T12:46:56.585Z,2.22
2022-11-28T12:49:29.703Z,4.47
2022-11-28T12:52:19.838Z,2.88
2022-11-28T12:55:36.247Z,3.25
2022-11-28T12:58:23.958Z,2.30
2022-11-28T13:01:02.555Z,6.10
2022-11-28T13:03:58.123Z,2.60
2022-11-28T13:07:03.022Z,3.22
2022-11-28T13:09:36.331Z,2.00
2022-11-28T13:12:28.115Z,2.75
2022-11-28T13:15:00.601Z,1.88
2022-11-28T13:17:59.560Z,2.13
2022-11-28T13:20:59.477Z,1.92
2022-11-28T13:23:43.985Z,3.38
2022-11-28T13:26:49.010Z,2.30
2022-11-28T13:29:48.278Z,1.75
2022-11-28T13:32:39.758Z,2.50
2022-11-28T13:35:18.367Z,1.80
2022-11-28T13:38:35.713Z,1.70
2022-11-28T13:42:05.849Z,2.03
2022-11-28T13:44:35.272Z,1.65
2022-11-28T13:47:37.318Z,2.17
2022-11-28T13:50:25.085Z,2.88
2022-11-28T13:53:10.606Z,1.95
2022-11-28T13:55:46.774Z,2.08
2022-11-28T13:58:48.756Z,3.05
2022-11-28T14:01:25.108Z,1.98
2022-11-28T14:03:58.607Z,2.00
2022-11-28T14:06:40.303Z,2.35
2022-11-28T14:09:16.521Z,2.00
2022-11-28T14:12:26.148Z,1.90
2022-11-28T14:15:03.984Z,2.10
2022-11-28T14:18:24.834Z,1.83
2022-11-28T14:20:59.343Z,1.55
2022-11-28T14:24:05.194Z,1.65
2022-11-28T14:26:36.989Z,2.05
2022-11-28T14:29:08.285Z,2.25
2022-11-28T14:31:38.938Z,1.77
2022-11-28T14:34:31.197Z,1.77
2022-11-28T14:37:34.036Z,1.92
2022-11-28T14:40:01.846Z,2.72
2022-11-28T14:45:43.353Z,1.60
2022-11-28T14:48:30.813Z,1.77
2022-11-28T14:51:01.658Z,2.53
2022-11-28T14:53:48.986Z,1.50
2022-11-28T14:56:15.881Z,1.80
2022-11-28T14:58:49.094Z,1.63
2022-11-28T15:01:44.577Z,2.03
2022-11-28T15:04:27.329Z,2.00
2022-11-28T15:06:55.662Z,6.50
2022-11-28T15:10:09.725Z,4.72
2022-11-28T15:12:59.770Z,4.50
2022-11-28T15:15:30.937Z,5.25
2022-11-28T15:18:05.101Z,4.32
2022-11-28T15:20:51.581Z,6.20
2022-11-28T15:23:29.027Z,2.20
2022-11-28T15:25:58.596Z,3.70
2022-11-28T15:28:29.100Z,3.88
2022-11-28T15:31:00.528Z,3.15
2022-11-28T15:33:29.563Z,2.88
2022-11-28T15:36:26.277Z,4.45
2022-11-28T15:38:54.784Z,3.42
2022-11-28T15:41:26.158Z,2.90
2022-11-28T15:43:56.450Z,2.95
2022-11-28T15:46:33.792Z,2.65
2022-11-28T15:49:05.151Z,1.58
2022-11-28T15:51:35.829Z,1.63
2022-11-28T15:54:13.364Z,2.45
2022-11-28T15:56:57.647Z,2.72
2022-11-28T15:59:24.919Z,2.47
2022-11-28T16:01:59.404Z,2.08
2022-11-28T16:04:28.908Z,1.40
2022-11-28T16:07:00.101Z,2.13
2022-11-28T16:09:38.590Z,3.35
2022-11-28T16:12:14.243Z,1.40
2022-11-28T16:14:45.193Z,2.33
2022-11-28T16:17:27.984Z,1.23
2022-11-28T16:19:57.129Z,2.47
2022-11-28T16:22:36.971Z,1.92
2022-11-28T16:25:24.184Z,1.58
2022-11-28T16:27:53.339Z,1.35
2022-11-28T16:30:47.917Z,1.40
2022-11-28T16:33:42.474Z,1.17
2022-11-28T16:36:11.440Z,1.27
2022-11-28T16:38:39.371Z,1.60
2022-11-28T16:41:06.640Z,1.20
2022-11-28T16:43:39.521Z,1.38
2022-11-28T16:46:19.608Z,1.92
2022-11-28T16:48:56.647Z,1.60
2022-11-28T16:51:33.195Z,1.40
2022-11-28T16:54:23.304Z,1.90
2022-11-28T16:56:50.360Z,1.10
2022-11-28T16:59:20.375Z,0.90
2022-11-28T17:01:55.098Z,1.15
2022-11-28T17:04:30.729Z,1.88
2022-11-28T17:07:05.451Z,1.35
2022-11-28T17:09:34.053Z,1.13
2022-11-28T17:12:26.592Z,1.40
2022-11-28T17:14:55.201Z,1.27
2022-11-28T17:17:24.088Z,1.17
2022-11-28T17:19:51.849Z,1.35
2022-11-28T17:22:26.800Z,1.30
2022-11-28T17:25:00.730Z,1.02
2022-11-28T17:27:28.346Z,1.20
2022-11-28T17:29:55.392Z,0.90
2022-11-28T17:32:22.670Z,1.20
2022-11-28T17:34:49.883Z,1.30
2022-11-28T17:37:17.110Z,1.27
2022-11-28T17:40:04.108Z,1.10
2022-11-28T17:42:31.989Z,1.40
2022-11-28T17:44:59.369Z,1.20
2022-11-28T17:47:26.516Z,1.08
2022-11-28T17:49:53.654Z,1.25
2022-11-28T17:52:21.145Z,1.58
2022-11-28T17:54:48.143Z,1.30
2022-11-28T17:57:15.222Z,1.35
2022-11-28T17:59:42.585Z,1.20
2022-11-28T18:02:11.341Z,1.55
2022-11-28T18:04:38.646Z,1.58
2022-11-28T18:07:05.828Z,1.23
2022-11-28T18:09:32.904Z,1.35
2022-11-28T18:12:00.026Z,2.53
2022-11-28T18:14:27.020Z,1.85
2022-11-28T18:16:54.057Z,1.95
2022-11-28T18:19:31.733Z,1.17
2022-11-28T18:21:58.952Z,1.50
2022-11-28T18:24:26.061Z,1.90
2022-11-28T18:26:54.381Z,1.60
2022-11-28T18:29:21.411Z,1.67
2022-11-28T18:31:48.641Z,1.48
2022-11-28T18:34:16.720Z,2.80
2022-11-28T18:36:43.882Z,2.42
2022-11-28T18:39:15.171Z,2.28
2022-11-28T18:41:42.682Z,1.85
2022-11-28T18:44:11.605Z,1.38
2022-11-28T18:46:39.815Z,1.55
2022-11-28T18:49:08.050Z,1.80
2022-11-28T18:51:36.021Z,1.15
2022-11-28T18:54:05.773Z,1.85
2022-11-28T18:56:33.115Z,1.02
2022-11-28T18:59:00.370Z,1.40
2022-11-28T19:01:34.252Z,1.95
2022-11-28T19:04:10.067Z,1.50
2022-11-28T19:06:40.422Z,1.40
2022-11-28T19:09:12.137Z,1.48
2022-11-28T19:11:40.675Z,1.40
2022-11-28T19:14:14.679Z,1.38
2022-11-28T19:16:45.974Z,1.25
2022-11-28T19:19:13.553Z,1.20
2022-11-28T19:21:40.681Z,1.33
2022-11-28T19:24:08.579Z,1.55
2022-11-28T19:26:37.575Z,1.65
2022-11-28T19:29:06.541Z,1.35
2022-11-28T19:31:37.034Z,1.13
2022-11-28T19:34:14.904Z,1.30
2022-11-28T19:36:48.583Z,1.30
2022-11-28T19:39:19.717Z,1.40
2022-11-28T19:41:47.531Z,1.35
2022-11-28T19:44:15.801Z,1.45
2022-11-28T19:46:44.088Z,1.20
2022-11-28T19:49:19.688Z,2.03
2022-11-28T19:51:48.120Z,1.33
2022-11-28T19:54:19.691Z,1.20
2022-11-28T19:56:47.613Z,1.48
2022-11-28T19:59:15.779Z,1.45
2022-11-28T20:01:43.759Z,1.30
2022-11-28T20:04:10.870Z,1.15
2022-11-28T20:06:38.122Z,1.38
2022-11-28T20:09:10.578Z,1.67
2022-11-28T20:11:38.199Z,1.40
2022-11-28T20:14:13.644Z,1.50
2022-11-28T20:16:40.808Z,2.03
2022-11-28T20:19:08.162Z,1.20
2022-11-28T20:21:38.607Z,1.17
2022-11-28T20:24:09.881Z,1.40
2022-11-28T20:26:41.165Z,1.30
2022-11-28T20:29:13.000Z,1.20
2022-11-28T20:31:46.899Z,1.52
2022-11-28T20:34:15.851Z,1.35
2022-11-28T20:36:43.736Z,1.75
2022-11-28T20:39:12.135Z,1.73
2022-11-28T20:41:39.710Z,1.30
2022-11-28T20:44:06.802Z,1.50
2022-11-28T20:46:35.585Z,1.30
2022-11-28T20:49:05.930Z,1.38
2022-11-28T20:51:35.473Z,1.65
2022-11-28T20:54:04.880Z,1.35
2022-11-28T20:57:05.143Z,1.60
2022-11-28T20:59:26.809Z,1.30
2022-11-28T21:01:54.010Z,1.23
2022-11-28T21:04:21.186Z,1.58
2022-11-28T21:06:49.440Z,1.10
2022-11-28T21:09:20.107Z,1.42
2022-11-28T21:11:58.572Z,1.13
2022-11-28T21:14:28.000Z,0.95
2022-11-28T21:16:55.955Z,1.45
2022-11-28T21:19:23.133Z,1.58
2022-11-28T21:21:50.435Z,1.33
2022-11-28T21:24:17.552Z,1.40
2022-11-28T21:26:49.618Z,1.15
2022-11-28T21:29:18.742Z,1.30
2022-11-28T21:31:46.723Z,1.27
2022-11-28T21:34:17.130Z,1.55
2022-11-28T21:36:45.011Z,1.27
2022-11-28T21:39:20.511Z,1.30
2022-11-28T21:41:48.481Z,1.17
2022-11-28T21:44:15.638Z,1.20
2022-11-28T21:46:42.649Z,1.42
2022-11-28T21:49:12.070Z,1.50
2022-11-28T21:51:41.852Z,1.15
2022-11-28T21:54:12.972Z,1.20
2022-11-28T21:56:40.129Z,1.30
2022-11-28T21:59:10.087Z,1.30
2022-11-28T22:01:37.268Z,0.80
2022-11-28T22:04:05.228Z,1.05
2022-11-28T22:06:33.097Z,1.52
2022-11-28T22:09:08.609Z,2.08
2022-11-28T22:11:36.527Z,1.13
2022-11-28T22:14:03.661Z,1.30
2022-11-28T22:16:30.888Z,1.50
2022-11-28T22:19:00.192Z,1.50
2022-11-28T22:21:51.433Z,1.40
2022-11-28T22:24:15.336Z,1.48
2022-11-28T22:26:42.366Z,1.30
2022-11-28T22:29:09.948Z,1.52
2022-11-28T22:31:37.340Z,1.40
2022-11-28T22:34:04.345Z,1.80
2022-11-28T22:36:33.388Z,1.33
2022-11-28T22:39:01.083Z,1.40
2022-11-28T22:41:29.724Z,1.17
2022-11-28T22:44:00.677Z,1.35
2022-11-28T22:46:28.993Z,1.33
2022-11-28T22:48:56.178Z,1.30
2022-11-28T22:51:26.317Z,1.50
2022-11-28T22:54:01.444Z,1.23
2022-11-28T22:56:32.252Z,1.38
2022-11-28T22:59:00.379Z,1.30
2022-11-28T23:01:30.769Z,1.38
2022-11-28T23:03:58.810Z,1.25
2022-11-28T23:06:29.647Z,1.40
2022-11-28T23:08:59.648Z,1.00
2022-11-28T23:11:30.378Z,1.30
2022-11-28T23:13:57.516Z,1.63
2022-11-28T23:16:31.256Z,1.30
2022-11-28T23:19:02.626Z,1.63
2022-11-28T23:21:33.976Z,1.50
2022-11-28T23:24:01.331Z,1.20
2022-11-28T23:26:31.154Z,1.40
2022-11-28T23:29:04.626Z,1.30
2022-11-28T23:31:35.100Z,1.40
2022-11-28T23:34:02.457Z,1.42
2022-11-28T23:36:38.503Z,1.30
2022-11-28T23:39:16.478Z,1.20
2022-11-28T23:41:44.894Z,1.45
2022-11-28T23:44:14.437Z,1.33
2022-11-28T23:46:43.727Z,1.23
2022-11-28T23:49:12.134Z,1.58
2022-11-28T23:51:40.801Z,1.35
2022-11-28T23:54:10.082Z,1.38
2022-11-28T23:56:39.745Z,1.42
2022-11-28T23:59:09.808Z,1.27
